Time;durP1;ratioP1;P1;durP2;ratioP2;P2;SDS_P1;SDS_P2;PMS_P1;PMS_P2;Temp;Humidity;BMP_temperature;BMP_pressure;BME280_temperature;BME280_humidity;BME280_pressure;Samples;Min_cycle;Max_cycle;Signal;HPM_P1;HPM_P2
2023/10/02 00:02:40;;;;;;;12.75;8.02;;;19.10;99.90;;;;;;5069774;28;20201;-80
2023/10/02 00:05:06;;;;;;;12.93;7.68;;;19.10;99.90;;;;;;5064864;28;20197;-81
2023/10/02 00:07:35;;;;;;;15.20;8.73;;;19.10;99.90;;;;;;5066854;28;20555;-81
2023/10/02 00:10:04;;;;;;;14.90;8.55;;;19.10;99.90;;;;;;5066873;28;20224;-80
2023/10/02 00:12:32;;;;;;;13.63;8.65;;;19.00;99.90;;;;;;5074318;28;20216;-81
2023/10/02 00:15:12;;;;;;;12.73;8.02;;;19.00;99.90;;;;;;5069572;28;20201;-80
2023/10/02 00:17:43;;;;;;;11.57;7.45;;;19.10;99.90;;;;;;5068636;28;20209;-80
2023/10/02 00:20:21;;;;;;;15.40;8.70;;;19.00;99.90;;;;;;5072590;28;20190;-80
2023/10/02 00:22:50;;;;;;;14.00;8.52;;;19.00;99.90;;;;;;5069981;28;20190;-80
2023/10/02 00:25:19;;;;;;;15.25;8.23;;;19.00;99.90;;;;;;5061784;28;20702;-80
2023/10/02 00:27:50;;;;;;;14.90;9.05;;;19.00;99.90;;;;;;5066455;28;20205;-80
2023/10/02 00:30:20;;;;;;;13.80;9.35;;;19.00;99.90;;;;;;5070981;28;20236;-80
2023/10/02 00:32:49;;;;;;;14.48;8.63;;;19.10;99.90;;;;;;5057417;28;20213;-81
2023/10/02 00:35:17;;;;;;;13.55;8.52;;;19.00;99.90;;;;;;5064087;28;20572;-78
2023/10/02 00:37:46;;;;;;;16.58;8.38;;;19.00;99.90;;;;;;5069289;28;20201;-78
2023/10/02 00:40:20;;;;;;;13.02;8.18;;;19.10;99.90;;;;;;5058686;28;20225;-79
2023/10/02 00:42:54;;;;;;;14.10;8.43;;;19.00;99.90;;;;;;5061906;28;20253;-78
2023/10/02 00:45:20;;;;;;;13.85;8.55;;;18.90;99.90;;;;;;5062368;28;20197;-78
2023/10/02 00:47:48;;;;;;;17.20;9.48;;;18.90;99.90;;;;;;5058648;28;20194;-78
2023/10/02 00:50:19;;;;;;;14.07;8.65;;;18.90;99.90;;;;;;5068769;28;20213;-78
2023/10/02 00:52:58;;;;;;;12.90;8.15;;;18.90;99.90;;;;;;5065943;28;21574;-78
2023/10/02 00:55:32;;;;;;;12.07;7.88;;;18.90;99.90;;;;;;5061416;28;20213;-78
2023/10/02 00:58:01;;;;;;;12.88;8.23;;;18.90;99.90;;;;;;5060677;28;20201;-78
2023/10/02 01:00:35;;;;;;;12.57;7.88;;;18.90;99.90;;;;;;5056255;28;20206;-79
2023/10/02 01:03:05;;;;;;;12.32;8.30;;;19.00;99.90;;;;;;5061888;28;20193;-78
2023/10/02 01:05:42;;;;;;;15.18;8.23;;;18.90;99.90;;;;;;5065377;28;20228;-78
2023/10/02 01:08:24;;;;;;;11.50;7.82;;;19.00;99.90;;;;;;5061323;28;20194;-78
2023/10/02 01:10:57;;;;;;;13.25;8.02;;;18.90;99.90;;;;;;5075914;28;20232;-78
2023/10/02 01:13:29;;;;;;;13.88;8.93;;;18.90;99.90;;;;;;5066137;28;20221;-78
2023/10/02 01:15:57;;;;;;;13.52;8.82;;;19.00;99.90;;;;;;5059759;28;20939;-78
2023/10/02 01:18:28;;;;;;;13.68;7.82;;;19.00;99.90;;;;;;5063543;28;20667;-78
2023/10/02 01:20:56;;;;;;;12.82;8.00;;;19.00;99.90;;;;;;5065666;28;20216;-78
2023/10/02 01:23:26;;;;;;;13.02;8.02;;;19.00;99.90;;;;;;5066157;28;20543;-78
2023/10/02 01:25:57;;;;;;;14.65;8.30;;;19.00;99.90;;;;;;5062426;28;20565;-78
2023/10/02 01:28:28;;;;;;;13.32;7.68;;;19.00;99.90;;;;;;5060625;28;20738;-78
2023/10/02 01:30:56;;;;;;;16.45;8.18;;;19.00;99.90;;;;;;5052831;28;20694;-77
2023/10/02 01:33:26;;;;;;;12.82;7.63;;;19.00;99.90;;;;;;5064435;28;20671;-78
2023/10/02 01:35:56;;;;;;;13.55;8.45;;;18.90;99.90;;;;;;5064996;28;20217;-78
2023/10/02 01:38:29;;;;;;;13.43;7.97;;;18.90;99.90;;;;;;5061558;28;20209;-78
2023/10/02 01:41:04;;;;;;;11.40;7.82;;;18.90;99.90;;;;;;5064395;28;20561;-78
2023/10/02 01:43:35;;;;;;;14.85;7.95;;;18.80;99.90;;;;;;5061871;28;20197;-78
2023/10/02 01:46:05;;;;;;;12.43;8.13;;;18.80;99.90;;;;;;5061534;28;20214;-77
2023/10/02 01:48:45;;;;;;;13.25;7.97;;;18.80;99.90;;;;;;5065276;28;20205;-77
2023/10/02 01:51:20;;;;;;;12.40;8.05;;;18.80;99.90;;;;;;5062174;28;20229;-80
2023/10/02 01:53:49;;;;;;;12.50;7.75;;;18.80;99.90;;;;;;5059686;28;20285;-78
2023/10/02 01:56:19;;;;;;;13.73;7.43;;;18.80;99.90;;;;;;5062839;28;20221;-77
2023/10/02 01:58:48;;;;;;;12.63;8.00;;;18.80;99.90;;;;;;5061585;28;20202;-78
2023/10/02 02:01:17;;;;;;;14.77;8.48;;;18.80;99.90;;;;;;5062686;28;20205;-78
2023/10/02 02:03:48;;;;;;;11.80;7.90;;;18.80;99.90;;;;;;5060191;28;20198;-78
2023/10/02 02:06:20;;;;;;;12.65;7.30;;;18.80;99.90;;;;;;5079868;28;20217;-79
2023/10/02 02:08:53;;;;;;;12.80;7.53;;;18.80;99.90;;;;;;5067210;28;20200;-78
2023/10/02 02:11:23;;;;;;;11.95;7.80;;;18.70;99.90;;;;;;5064307;28;20218;-78
2023/10/02 02:13:52;;;;;;;14.20;8.13;;;18.80;99.90;;;;;;5060895;28;20193;-78
2023/10/02 02:16:25;;;;;;;12.35;7.35;;;18.70;99.90;;;;;;5063765;28;20234;-77
2023/10/02 02:18:54;;;;;;;13.05;8.05;;;18.70;99.90;;;;;;5067785;28;20198;-78
2023/10/02 02:21:24;;;;;;;13.73;8.10;;;18.70;99.90;;;;;;5067675;28;20204;-77
2023/10/02 02:24:03;;;;;;;12.63;7.90;;;18.70;99.90;;;;;;5064998;28;20216;-77
2023/10/02 02:26:33;;;;;;;12.50;8.05;;;18.70;99.90;;;;;;5066016;28;20224;-77
2023/10/02 02:29:01;;;;;;;12.82;7.80;;;18.70;99.90;;;;;;5070184;28;20194;-78
2023/10/02 02:31:32;;;;;;;12.18;8.15;;;18.60;99.90;;;;;;5061647;28;20229;-78
2023/10/02 02:34:02;;;;;;;13.80;8.02;;;18.60;99.90;;;;;;5066981;28;20565;-77
2023/10/02 02:36:34;;;;;;;14.55;7.95;;;18.60;99.90;;;;;;5067448;28;20228;-77
2023/10/02 02:39:15;;;;;;;12.80;7.35;;;18.60;99.90;;;;;;5064155;28;20202;-78
2023/10/02 02:41:46;;;;;;;12.50;8.27;;;18.60;99.90;;;;;;5066851;28;20213;-78
2023/10/02 02:44:39;;;;;;;12.82;7.78;;;18.60;99.90;;;;;;5064000;28;20209;-78
2023/10/02 02:47:12;;;;;;;13.52;7.50;;;18.60;99.90;;;;;;5080084;28;20699;-77
2023/10/02 02:49:50;;;;;;;13.38;7.85;;;18.60;99.90;;;;;;5070042;28;20208;-80
2023/10/02 02:52:19;;;;;;;14.20;7.88;;;18.60;99.90;;;;;;5068635;28;20565;-80
2023/10/02 02:54:48;;;;;;;12.20;7.50;;;18.60;99.90;;;;;;5059245;28;20206;-81
2023/10/02 02:57:25;;;;;;;13.40;7.68;;;18.60;99.90;;;;;;5064678;28;20237;-80
2023/10/02 03:00:29;;;;;;;15.32;8.20;;;18.60;99.90;;;;;;5063396;28;20559;-80
2023/10/02 03:02:46;;;;;;;14.70;8.10;;;18.60;99.90;;;;;;5068399;28;20209;-81
2023/10/02 03:05:14;;;;;;;13.80;7.97;;;18.60;99.90;;;;;;5060012;28;20193;-80
2023/10/02 03:07:42;;;;;;;14.45;8.70;;;18.60;99.90;;;;;;5063597;28;20209;-81
2023/10/02 03:10:12;;;;;;;12.30;7.57;;;18.60;99.90;;;;;;5061930;28;20206;-80
2023/10/02 03:12:45;;;;;;;14.23;8.38;;;18.60;99.90;;;;;;5066487;28;20274;-80
2023/10/02 03:15:15;;;;;;;13.52;8.32;;;18.60;99.90;;;;;;5068639;28;20255;-80
2023/10/02 03:17:45;;;;;;;13.25;8.13;;;18.60;99.90;;;;;;5067739;28;20205;-80
2023/10/02 03:20:23;;;;;;;14.65;8.48;;;18.60;99.90;;;;;;5063955;28;20201;-80
2023/10/02 03:22:53;;;;;;;14.60;7.90;;;18.70;99.90;;;;;;5057689;28;20197;-78
2023/10/02 03:25:40;;;;;;;11.82;8.40;;;18.60;99.90;;;;;;5070307;28;20229;-77
2023/10/02 03:28:27;;;;;;;12.75;8.40;;;18.70;99.90;;;;;;5080607;28;20204;-78
2023/10/02 03:30:55;;;;;;;13.65;8.45;;;18.60;99.90;;;;;;5079706;28;20213;-78
2023/10/02 03:33:22;;;;;;;15.40;7.90;;;18.70;99.90;;;;;;5056542;28;20663;-78
2023/10/02 03:36:08;;;;;;;14.10;8.45;;;18.70;99.90;;;;;;5065457;28;20694;-77
2023/10/02 03:38:41;;;;;;;13.35;7.85;;;18.60;99.90;;;;;;5060358;28;20198;-78
2023/10/02 03:41:10;;;;;;;14.15;8.10;;;18.60;99.90;;;;;;5066513;28;20190;-78
2023/10/02 03:43:43;;;;;;;12.65;8.05;;;18.60;99.90;;;;;;5065351;28;20213;-77
2023/10/02 03:46:15;;;;;;;12.85;7.95;;;18.60;99.90;;;;;;5067814;28;20232;-77
2023/10/02 03:48:50;;;;;;;14.23;7.65;;;18.50;99.90;;;;;;5059600;28;20213;-78
2023/10/02 03:51:35;;;;;;;15.43;9.15;;;18.50;99.90;;;;;;5059989;28;20264;-77
2023/10/02 03:54:17;;;;;;;14.43;8.50;;;18.50;99.90;;;;;;5064761;28;20561;-78
2023/10/02 03:56:47;;;;;;;14.45;8.18;;;18.50;99.90;;;;;;5065860;28;20221;-77
2023/10/02 03:59:20;;;;;;;14.10;7.60;;;18.40;99.90;;;;;;5068305;28;20200;-77
2023/10/02 04:01:50;;;;;;;16.00;8.60;;;18.40;99.90;;;;;;5064712;28;20201;-78
2023/10/02 04:04:21;;;;;;;14.35;7.95;;;18.50;99.90;;;;;;5061829;28;20210;-78
2023/10/02 04:06:53;;;;;;;11.45;7.50;;;18.40;99.90;;;;;;5065818;28;20588;-77
2023/10/02 04:09:25;;;;;;;13.95;8.15;;;18.40;99.90;;;;;;5062103;28;20198;-77
2023/10/02 04:11:54;;;;;;;13.70;7.93;;;18.40;99.90;;;;;;5062783;28;20225;-78
2023/10/02 04:14:32;;;;;;;14.85;8.77;;;18.40;99.90;;;;;;5068877;28;20201;-78
2023/10/02 04:17:09;;;;;;;12.93;8.30;;;18.50;99.90;;;;;;5065664;28;20228;-78
2023/10/02 04:19:40;;;;;;;14.43;8.85;;;18.40;99.90;;;;;;5072868;28;20225;-78
2023/10/02 04:22:15;;;;;;;14.95;8.63;;;18.40;99.90;;;;;;5071716;28;20209;-78
2023/10/02 04:24:51;;;;;;;15.55;8.43;;;18.40;99.90;;;;;;5075635;28;20189;-80
2023/10/02 04:27:22;;;;;;;14.80;8.48;;;18.40;99.90;;;;;;5070176;28;20225;-80
2023/10/02 04:32:33;;;;;;;15.55;9.25;;;18.40;99.90;;;;;;5061490;28;20608;-80
2023/10/02 04:35:02;;;;;;;12.13;7.13;;;18.40;99.90;;;;;;5073714;28;20201;-81
2023/10/02 04:37:32;;;;;;;14.00;8.77;;;18.40;99.90;;;;;;5074170;28;20197;-81
2023/10/02 04:40:14;;;;;;;14.55;7.85;;;18.40;99.90;;;;;;5069351;28;20528;-81
2023/10/02 04:43:15;;;;;;;17.35;8.80;;;18.40;99.90;;;;;;5070988;28;20199;-81
2023/10/02 04:45:45;;;;;;;13.10;8.38;;;18.40;99.90;;;;;;5070488;28;20229;-83
2023/10/02 04:48:13;;;;;;;15.20;8.50;;;18.40;99.90;;;;;;5071548;28;20213;-83
2023/10/02 04:50:45;;;;;;;14.85;8.70;;;18.40;99.90;;;;;;5063581;28;20201;-81
2023/10/02 04:56:24;;;;;;;27.33;12.02;;;18.60;99.90;;;;;;5066528;28;20221;-81
2023/10/02 04:58:57;;;;;;;17.23;10.05;;;18.70;99.90;;;;;;5084174;28;20202;-81
2023/10/02 05:01:34;;;;;;;22.15;11.25;;;18.70;99.90;;;;;;5066106;28;20251;-81
2023/10/02 05:04:31;;;;;;;19.98;10.77;;;18.70;99.90;;;;;;5064052;28;20464;-81
2023/10/02 05:07:20;;;;;;;19.98;9.55;;;18.70;99.90;;;;;;5067217;28;20229;-81
2023/10/02 05:09:49;;;;;;;17.58;10.00;;;18.60;99.90;;;;;;5070583;28;20204;-81
2023/10/02 05:12:22;;;;;;;14.98;8.73;;;18.60;99.90;;;;;;5071542;28;20683;-81
2023/10/02 05:14:52;;;;;;;14.57;9.00;;;18.60;99.90;;;;;;5071258;28;20202;-81
2023/10/02 05:17:38;;;;;;;15.75;8.32;;;18.50;99.90;;;;;;5066571;28;20229;-81
2023/10/02 05:20:11;;;;;;;13.50;8.27;;;18.40;99.90;;;;;;5065225;28;20216;-81
2023/10/02 05:22:38;;;;;;;12.98;8.25;;;18.30;99.90;;;;;;5060571;28;20189;-81
2023/10/02 05:25:07;;;;;;;17.10;8.75;;;18.30;99.90;;;;;;5069100;28;20191;-81
2023/10/02 05:27:35;;;;;;;14.40;8.85;;;18.20;99.90;;;;;;5068425;28;20566;-79
2023/10/02 05:30:12;;;;;;;15.75;8.15;;;18.30;99.90;;;;;;5077893;28;20224;-79
2023/10/02 05:32:42;;;;;;;14.52;8.70;;;18.30;99.90;;;;;;5065528;28;20582;-79
2023/10/02 05:35:18;;;;;;;14.18;8.52;;;18.20;99.90;;;;;;5068782;28;20212;-78
2023/10/02 05:37:46;;;;;;;16.55;8.38;;;18.20;99.90;;;;;;5073177;28;20572;-78
2023/10/02 05:43:17;;;;;;;16.63;8.82;;;18.20;99.90;;;;;;5063159;28;20205;-79
2023/10/02 05:45:53;;;;;;;15.52;8.50;;;18.20;99.90;;;;;;5061982;28;20225;-79
2023/10/02 05:48:37;;;;;;;16.02;8.90;;;18.20;99.90;;;;;;5068762;28;20559;-79
2023/10/02 05:51:09;;;;;;;17.35;8.05;;;18.10;99.90;;;;;;5066194;28;20209;-80
2023/10/02 05:53:37;;;;;;;15.15;8.30;;;18.10;99.90;;;;;;5066434;28;20198;-80
2023/10/02 05:56:13;;;;;;;13.00;7.97;;;18.10;99.90;;;;;;5066276;28;20232;-80
2023/10/02 05:58:41;;;;;;;14.25;8.55;;;18.20;99.90;;;;;;5062871;28;20201;-79
2023/10/02 06:01:18;;;;;;;13.25;8.65;;;18.10;99.90;;;;;;5060024;28;20201;-79
2023/10/02 06:03:56;;;;;;;17.05;9.82;;;18.10;99.90;;;;;;5070766;28;20197;-80
2023/10/02 06:06:24;;;;;;;17.55;8.93;;;18.20;99.90;;;;;;5082763;28;20229;-79
2023/10/02 06:08:54;;;;;;;15.38;8.63;;;18.20;99.90;;;;;;5086191;28;20202;-79
2023/10/02 06:11:32;;;;;;;15.98;8.13;;;18.20;99.90;;;;;;5065634;28;20202;-80
2023/10/02 06:14:09;;;;;;;14.90;8.68;;;18.20;99.90;;;;;;5065923;28;20206;-80
2023/10/02 06:16:39;;;;;;;14.80;9.18;;;18.20;99.90;;;;;;5072125;28;20225;-80
2023/10/02 06:19:13;;;;;;;16.35;9.10;;;18.30;99.90;;;;;;5071739;28;20198;-80
2023/10/02 06:21:46;;;;;;;13.48;8.32;;;18.20;99.90;;;;;;5067653;28;20202;-80
2023/10/02 06:24:15;;;;;;;15.23;8.18;;;18.30;99.90;;;;;;5064816;28;20201;-80
2023/10/02 06:26:57;;;;;;;13.40;8.18;;;18.30;99.90;;;;;;5068674;28;20486;-81
2023/10/02 06:29:31;;;;;;;17.80;9.25;;;18.30;99.90;;;;;;5065704;28;20205;-80
2023/10/02 06:31:59;;;;;;;14.93;9.90;;;18.30;99.90;;;;;;5073189;28;20224;-81
2023/10/02 06:34:36;;;;;;;12.88;8.18;;;18.30;99.90;;;;;;5073061;28;20201;-82
2023/10/02 06:37:08;;;;;;;15.70;8.50;;;18.40;99.90;;;;;;5068184;28;20221;-81
2023/10/02 06:39:45;;;;;;;13.15;8.10;;;18.40;99.90;;;;;;5061068;28;20221;-81
2023/10/02 06:42:17;;;;;;;15.35;8.60;;;18.50;99.90;;;;;;5073404;28;20193;-82
2023/10/02 06:44:54;;;;;;;14.93;8.32;;;18.50;99.90;;;;;;5074499;28;20201;-82
2023/10/02 06:47:23;;;;;;;15.18;8.15;;;18.50;99.90;;;;;;5067751;28;20221;-81
2023/10/02 06:49:53;;;;;;;16.90;9.60;;;18.50;99.90;;;;;;5071276;28;20205;-81
2023/10/02 06:52:24;;;;;;;15.43;9.07;;;18.60;99.90;;;;;;5072256;28;20222;-80
2023/10/02 06:54:56;;;;;;;15.57;8.98;;;18.70;99.90;;;;;;5072103;28;20205;-80
2023/10/02 06:57:24;;;;;;;15.80;8.95;;;18.70;99.90;;;;;;5071981;28;20229;-79
2023/10/02 06:59:53;;;;;;;15.98;8.65;;;18.80;99.90;;;;;;5065392;28;20206;-78
2023/10/02 07:02:21;;;;;;;15.93;8.60;;;18.90;99.90;;;;;;5063503;28;20668;-78
2023/10/02 07:04:50;;;;;;;13.18;8.52;;;19.00;99.90;;;;;;5073396;28;20205;-78
2023/10/02 07:07:24;;;;;;;16.35;9.07;;;19.10;99.90;;;;;;5072402;28;20225;-79
2023/10/02 07:09:54;;;;;;;14.90;8.65;;;19.10;99.90;;;;;;5073787;28;20548;-79
2023/10/02 07:12:27;;;;;;;15.98;8.95;;;19.00;99.90;;;;;;5059974;28;20217;-79
2023/10/02 07:15:10;;;;;;;15.45;9.05;;;19.00;99.90;;;;;;5060434;28;20205;-79
2023/10/02 07:17:47;;;;;;;14.35;8.63;;;19.00;99.90;;;;;;5069922;28;20204;-79
2023/10/02 07:20:15;;;;;;;15.77;9.13;;;19.00;99.90;;;;;;5066874;28;20209;-79
2023/10/02 07:22:44;;;;;;;15.05;8.57;;;19.00;99.90;;;;;;5071613;28;20210;-79
2023/10/02 07:25:11;;;;;;;15.05;8.88;;;18.90;99.90;;;;;;5066577;28;20209;-79
2023/10/02 07:27:40;;;;;;;11.95;8.43;;;19.00;99.90;;;;;;5073075;28;20209;-79
2023/10/02 07:30:09;;;;;;;14.82;8.85;;;19.00;99.90;;;;;;5067418;28;20206;-79
2023/10/02 07:32:36;;;;;;;14.43;8.40;;;19.00;99.90;;;;;;5073217;28;20220;-79
2023/10/02 07:35:21;;;;;;;15.80;9.25;;;19.10;99.90;;;;;;5065894;28;20197;-79
2023/10/02 07:37:58;;;;;;;14.93;8.95;;;19.10;99.90;;;;;;5066099;28;20202;-79
2023/10/02 07:40:27;;;;;;;18.80;9.55;;;19.20;99.90;;;;;;5075148;28;20193;-79
2023/10/02 07:42:55;;;;;;;14.55;9.32;;;19.20;99.90;;;;;;5067758;28;20197;-79
2023/10/02 07:45:25;;;;;;;16.13;10.05;;;19.30;99.90;;;;;;5066028;28;20670;-79
2023/10/02 07:48:13;;;;;;;15.20;9.48;;;19.40;99.90;;;;;;5076177;28;20197;-79
2023/10/02 07:50:41;;;;;;;16.30;9.75;;;19.50;99.90;;;;;;5070640;28;20213;-79
2023/10/02 07:53:11;;;;;;;15.95;9.52;;;19.50;99.90;;;;;;5070033;28;20220;-79
2023/10/02 07:55:42;;;;;;;14.70;8.63;;;19.60;99.90;;;;;;5077496;28;20229;-79
2023/10/02 07:58:13;;;;;;;16.45;9.20;;;19.70;99.90;;;;;;5079045;28;20202;-79
2023/10/02 08:00:41;;;;;;;15.40;8.93;;;19.80;99.90;;;;;;5075702;28;20214;-79
2023/10/02 08:05:56;;;;;;;15.52;9.20;;;19.90;99.90;;;;;;5078661;28;20220;-79
2023/10/02 08:08:31;;;;;;;17.70;8.93;;;20.00;99.90;;;;;;5077886;28;20216;-79
2023/10/02 08:11:02;;;;;;;18.40;9.40;;;20.00;99.90;;;;;;5069464;28;20194;-79
2023/10/02 08:13:36;;;;;;;15.77;9.60;;;20.10;99.90;;;;;;5066328;28;20214;-80
2023/10/02 08:16:11;;;;;;;16.48;9.88;;;20.20;99.90;;;;;;5068602;28;20217;-79
2023/10/02 08:21:24;;;;;;;16.73;9.82;;;20.40;99.90;;;;;;5063664;28;20199;-78
2023/10/02 08:23:55;;;;;;;13.32;8.02;;;20.40;99.90;;;;;;5066016;28;20196;-77
2023/10/02 08:26:22;;;;;;;15.05;8.65;;;20.50;99.90;;;;;;5069149;28;20225;-81
2023/10/02 08:28:52;;;;;;;14.65;8.73;;;20.60;99.90;;;;;;5072579;28;20205;-80
2023/10/02 08:31:19;;;;;;;18.88;9.98;;;20.70;99.90;;;;;;5064441;28;20206;-79
2023/10/02 08:33:48;;;;;;;15.43;9.75;;;20.80;99.90;;;;;;5062462;28;20217;-78
2023/10/02 08:36:43;;;;;;;15.90;9.15;;;20.90;99.90;;;;;;5068048;28;20586;-77
2023/10/02 08:39:12;;;;;;;15.73;9.27;;;21.00;99.90;;;;;;5066486;28;20205;-77
2023/10/02 08:41:44;;;;;;;17.27;9.40;;;21.10;99.90;;;;;;5073219;28;20205;-79
2023/10/02 08:44:13;;;;;;;15.45;9.00;;;21.10;99.90;;;;;;5067322;28;20194;-77
2023/10/02 08:46:42;;;;;;;16.27;9.63;;;21.10;99.90;;;;;;5067829;28;20228;-78
2023/10/02 08:49:12;;;;;;;17.20;10.48;;;21.20;99.90;;;;;;5055463;28;20206;-77
2023/10/02 08:51:52;;;;;;;17.17;10.98;;;21.20;99.90;;;;;;5081998;28;20208;-76
2023/10/02 08:54:27;;;;;;;17.15;9.93;;;21.30;99.90;;;;;;5084747;28;20217;-77
2023/10/02 08:57:06;;;;;;;16.70;10.00;;;21.40;99.90;;;;;;5071203;28;20216;-77
2023/10/02 08:59:38;;;;;;;15.52;10.25;;;21.40;99.90;;;;;;5064855;28;20213;-78
2023/10/02 09:02:13;;;;;;;15.23;9.00;;;21.50;99.90;;;;;;5071609;28;20201;-80
2023/10/02 09:04:42;;;;;;;16.73;9.82;;;21.50;99.90;;;;;;5073000;28;20201;-80
2023/10/02 09:07:44;;;;;;;15.73;10.05;;;21.60;99.90;;;;;;5066382;28;20221;-80
2023/10/02 09:10:24;;;;;;;19.38;10.70;;;21.60;99.90;;;;;;5075430;28;20197;-80
2023/10/02 09:13:11;;;;;;;17.08;10.45;;;21.60;99.90;;;;;;5071362;28;20209;-78
2023/10/02 09:15:44;;;;;;;17.55;10.27;;;21.70;99.90;;;;;;5067903;28;20717;-78
2023/10/02 09:18:22;;;;;;;16.98;9.82;;;21.90;99.90;;;;;;5074723;28;20185;-79
2023/10/02 09:20:53;;;;;;;18.90;10.50;;;22.00;99.90;;;;;;5068361;28;20205;-78
2023/10/02 09:23:23;;;;;;;18.75;10.27;;;22.00;99.90;;;;;;5074693;28;20655;-78
2023/10/02 09:26:16;;;;;;;15.38;9.50;;;22.10;99.90;;;;;;5071929;28;20218;-78
2023/10/02 09:28:56;;;;;;;15.00;9.85;;;22.10;99.90;;;;;;5072769;28;20196;-78
2023/10/02 09:31:24;;;;;;;17.80;10.48;;;22.10;99.90;;;;;;5073678;28;20205;-78
2023/10/02 09:33:53;;;;;;;18.42;10.52;;;22.00;99.90;;;;;;5067856;28;20224;-78
2023/10/02 09:36:34;;;;;;;17.45;10.68;;;22.30;99.90;;;;;;5087984;28;20232;-79
2023/10/02 09:39:31;;;;;;;16.33;10.23;;;22.40;99.90;;;;;;5067707;28;20206;-78
2023/10/02 09:42:05;;;;;;;15.80;10.07;;;22.30;99.90;;;;;;5071533;28;20205;-78
2023/10/02 09:44:45;;;;;;;23.63;9.73;;;22.40;99.90;;;;;;5088641;28;20678;-79
2023/10/02 09:47:25;;;;;;;17.85;10.65;;;22.40;99.90;;;;;;5089787;28;20213;-80
2023/10/02 09:50:57;;;;;;;;;;;;;;;;;;;;;
2023/10/02 09:54:38;;;;;;;;;;;;;;;;;;;;;
2023/10/02 09:57:12;;;;;;;17.20;9.82;;;22.80;99.90;;;;;;5008975;28;20221;-80
2023/10/02 09:59:46;;;;;;;17.23;11.30;;;22.90;99.90;;;;;;5079456;28;20209;-79
2023/10/02 10:05:46;;;;;;;17.13;10.65;;;22.80;99.90;;;;;;5081583;28;20198;-79
2023/10/02 10:10:27;;;;;;;16.85;10.20;;;23.00;99.90;;;;;;5080241;28;20201;-79
2023/10/02 10:11:27;;;;;;;19.27;11.93;;;22.90;99.90;;;;;;5028335;28;20197;-78
2023/10/02 10:13:59;;;;;;;17.15;10.88;;;22.90;99.90;;;;;;5062366;28;20198;-77
2023/10/02 10:16:38;;;;;;;19.27;10.45;;;23.00;99.90;;;;;;5066236;28;20594;-77
2023/10/02 10:19:26;;;;;;;16.70;10.52;;;23.00;99.90;;;;;;5064921;28;20197;-77
2023/10/02 10:25:44;;;;;;;18.63;10.73;;;23.30;99.90;;;;;;5059128;28;20178;-76
2023/10/02 10:28:26;;;;;;;14.45;9.57;;;23.30;99.90;;;;;;5062897;28;20194;-77
2023/10/02 10:31:01;;;;;;;18.13;10.70;;;23.40;99.90;;;;;;5069652;28;20204;-78
2023/10/02 10:33:41;;;;;;;20.90;10.38;;;23.60;99.90;;;;;;5064288;28;20204;-78
2023/10/02 10:39:59;;;;;;;18.48;10.57;;;23.80;99.90;;;;;;5077254;28;20650;-78
2023/10/02 10:42:25;;;;;;;17.95;10.45;;;23.80;99.90;;;;;;5071812;28;20223;-78
2023/10/02 10:45:38;;;;;;;16.63;10.50;;;23.90;99.90;;;;;;5064508;28;20193;-78
2023/10/02 10:48:19;;;;;;;17.98;10.25;;;24.10;99.90;;;;;;5083950;28;20209;-78
2023/10/02 10:50:56;;;;;;;18.92;10.98;;;24.30;99.90;;;;;;5070164;28;20210;-78
2023/10/02 10:53:27;;;;;;;18.25;10.70;;;24.30;99.90;;;;;;5059339;28;20210;-78
2023/10/02 10:56:03;;;;;;;19.17;11.50;;;24.50;99.90;;;;;;5066659;28;20218;-78
2023/10/02 10:58:34;;;;;;;18.75;11.10;;;24.40;99.90;;;;;;5062434;28;20190;-78
2023/10/02 11:01:04;;;;;;;17.10;10.77;;;24.40;99.90;;;;;;5072738;28;20198;-78
2023/10/02 11:03:34;;;;;;;19.95;11.38;;;24.40;99.90;;;;;;5068685;28;20202;-78
2023/10/02 11:06:03;;;;;;;18.40;11.23;;;24.60;99.90;;;;;;5057618;28;20214;-78
2023/10/02 11:08:33;;;;;;;19.77;10.90;;;24.70;99.90;;;;;;5069361;28;20200;-78
2023/10/02 11:11:11;;;;;;;19.42;11.45;;;24.90;99.90;;;;;;5067990;28;20608;-78
2023/10/02 11:13:50;;;;;;;18.55;10.60;;;24.90;99.90;;;;;;5064618;28;20224;-77
2023/10/02 11:16:30;;;;;;;16.98;10.50;;;24.80;99.90;;;;;;5056538;28;20225;-78
2023/10/02 11:19:34;;;;;;;15.52;10.05;;;24.70;99.90;;;;;;5070467;28;20193;-77
2023/10/02 11:22:03;;;;;;;17.33;11.02;;;24.70;99.90;;;;;;5053719;28;20201;-78
2023/10/02 11:24:33;;;;;;;19.45;11.10;;;24.80;99.90;;;;;;5064594;28;20194;-78
2023/10/02 11:27:08;;;;;;;18.70;10.52;;;24.80;99.90;;;;;;5062465;28;20225;-78
2023/10/02 11:29:40;;;;;;;18.70;10.88;;;24.70;99.90;;;;;;5062749;28;20198;-78
2023/10/02 11:32:21;;;;;;;17.75;9.93;;;24.60;99.90;;;;;;5061429;28;21096;-79
2023/10/02 11:34:58;;;;;;;17.75;10.40;;;24.60;99.90;;;;;;5061571;28;20218;-79
2023/10/02 11:37:28;;;;;;;16.77;10.43;;;24.50;99.90;;;;;;5070614;28;20578;-78
2023/10/02 11:39:57;;;;;;;17.77;10.48;;;24.60;99.90;;;;;;5069923;28;20199;-78
2023/10/02 11:42:25;;;;;;;17.45;10.05;;;24.70;99.90;;;;;;5069891;28;20201;-78
2023/10/02 11:44:54;;;;;;;16.52;10.40;;;24.80;99.90;;;;;;5058269;28;20198;-78
2023/10/02 11:47:22;;;;;;;15.73;9.73;;;24.90;99.90;;;;;;5069175;28;20228;-78
2023/10/02 11:49:50;;;;;;;15.48;9.60;;;24.90;99.90;;;;;;5062073;28;20194;-80
2023/10/02 11:52:18;;;;;;;19.70;10.48;;;24.90;99.90;;;;;;5064522;28;20191;-78
2023/10/02 11:54:46;;;;;;;18.92;11.07;;;25.10;99.90;;;;;;5064193;28;20217;-78
2023/10/02 11:57:13;;;;;;;17.23;9.80;;;25.00;99.90;;;;;;5068063;28;20220;-78
2023/10/02 11:59:43;;;;;;;18.13;10.40;;;25.00;99.90;;;;;;5058473;28;20190;-78
2023/10/02 12:02:12;;;;;;;18.92;11.13;;;25.10;99.90;;;;;;5056689;28;20200;-78
2023/10/02 12:04:39;;;;;;;18.52;11.00;;;25.50;99.90;;;;;;5063869;28;20560;-78
2023/10/02 12:07:08;;;;;;;18.48;10.80;;;25.60;99.90;;;;;;5059205;28;20221;-78
2023/10/02 12:09:35;;;;;;;20.10;10.77;;;25.70;99.90;;;;;;5068645;28;20213;-78
2023/10/02 12:12:03;;;;;;;18.33;11.35;;;25.70;99.90;;;;;;5069429;28;20201;-78
2023/10/02 12:14:31;;;;;;;17.95;10.30;;;25.50;99.90;;;;;;5064067;28;20210;-78
2023/10/02 12:16:59;;;;;;;20.13;11.18;;;25.30;99.90;;;;;;5066712;28;20226;-78
2023/10/02 12:19:28;;;;;;;16.45;10.48;;;25.20;99.90;;;;;;5052339;28;20214;-77
2023/10/02 12:21:56;;;;;;;20.60;10.90;;;25.10;99.90;;;;;;5058651;28;20716;-78
2023/10/02 12:24:25;;;;;;;18.85;11.02;;;25.10;99.90;;;;;;5068562;28;20212;-78
2023/10/02 12:27:10;;;;;;;20.55;11.00;;;25.10;99.90;;;;;;5067736;28;20683;-78
2023/10/02 12:29:47;;;;;;;19.48;11.38;;;25.10;99.90;;;;;;5073063;28;20201;-78
2023/10/02 12:32:23;;;;;;;18.17;10.32;;;25.10;99.90;;;;;;5051432;28;20205;-78
2023/10/02 12:35:05;;;;;;;17.40;11.77;;;24.90;99.90;;;;;;5060281;28;20728;-78
2023/10/02 12:37:32;;;;;;;17.42;10.38;;;24.80;99.90;;;;;;5068212;28;20647;-77
2023/10/02 12:40:03;;;;;;;18.27;10.18;;;24.80;99.90;;;;;;5070750;28;20220;-77
2023/10/02 12:42:51;;;;;;;16.17;10.45;;;25.00;99.90;;;;;;5069026;28;20205;-77
2023/10/02 12:45:19;;;;;;;17.05;11.27;;;25.10;99.90;;;;;;5064943;28;20193;-76
2023/10/02 12:47:46;;;;;;;18.35;10.07;;;25.00;99.90;;;;;;5071684;28;20536;-76
2023/10/02 12:50:13;;;;;;;17.52;10.60;;;25.10;99.90;;;;;;5062081;28;20671;-77
2023/10/02 12:52:41;;;;;;;17.25;10.60;;;25.10;99.90;;;;;;5055540;28;20206;-78
2023/10/02 12:55:10;;;;;;;16.77;10.48;;;25.20;99.90;;;;;;5060775;28;20221;-77
2023/10/02 12:57:39;;;;;;;21.35;11.95;;;25.30;99.90;;;;;;5070524;28;20200;-77
2023/10/02 13:00:16;;;;;;;18.40;10.80;;;25.20;99.90;;;;;;5070384;28;20209;-77
2023/10/02 13:02:44;;;;;;;16.95;10.52;;;25.40;99.90;;;;;;5067415;28;20205;-77
2023/10/02 13:05:12;;;;;;;19.23;10.57;;;25.70;99.90;;;;;;5061675;28;20202;-77
2023/10/02 13:07:41;;;;;;;18.10;10.25;;;25.70;99.90;;;;;;5070472;28;20198;-77
2023/10/02 13:10:10;;;;;;;18.33;10.50;;;25.80;99.90;;;;;;5062206;28;20205;-77
2023/10/02 13:12:38;;;;;;;19.88;11.35;;;25.80;99.90;;;;;;5067073;28;20204;-77
2023/10/02 13:15:07;;;;;;;19.10;11.10;;;25.90;99.90;;;;;;5072663;28;20217;-77
2023/10/02 13:17:34;;;;;;;19.52;11.50;;;25.90;99.90;;;;;;5066899;28;20226;-77
2023/10/02 13:20:02;;;;;;;16.95;10.63;;;25.70;99.90;;;;;;5063615;28;20210;-77
2023/10/02 13:22:30;;;;;;;16.77;10.02;;;25.60;99.90;;;;;;5066492;28;20210;-77
2023/10/02 13:24:57;;;;;;;15.07;9.50;;;25.50;99.90;;;;;;5068775;28;20202;-77
2023/10/02 13:27:26;;;;;;;17.60;9.65;;;25.50;99.30;;;;;;5055985;28;20218;-77
2023/10/02 13:29:55;;;;;;;16.90;9.52;;;25.70;99.80;;;;;;5063840;28;20193;-77
2023/10/02 13:32:23;;;;;;;14.18;8.93;;;25.70;99.40;;;;;;5059876;28;20529;-77
2023/10/02 13:34:51;;;;;;;16.25;9.90;;;25.70;99.90;;;;;;5056613;28;20195;-77